createdAt,value
2022-08-24T00:02:02.102Z,97741.34
2022-08-24T00:04:31.952Z,97736.94
2022-08-24T00:06:59.426Z,97732.66
2022-08-24T00:09:26.011Z,97737.53
2022-08-24T00:11:52.524Z,97738.50
2022-08-24T00:14:19.382Z,97737.16
2022-08-24T00:16:46.553Z,97734.97
2022-08-24T00:19:13.510Z,97728.81
2022-08-24T00:21:40.010Z,97733.97
2022-08-24T00:24:07.032Z,97728.91
2022-08-24T00:26:35.347Z,97732.13
2022-08-24T00:29:06.803Z,97734.69
2022-08-24T00:31:34.226Z,97735.00
2022-08-24T00:34:00.799Z,97736.00
2022-08-24T00:36:27.481Z,97734.44
2022-08-24T00:38:53.987Z,97733.78
2022-08-24T00:41:20.571Z,97733.78
2022-08-24T00:43:59.355Z,97739.72
2022-08-24T00:46:30.905Z,97740.41
2022-08-24T00:49:12.012Z,97738.31
2022-08-24T00:51:49.715Z,97729.38
2022-08-24T00:54:18.072Z,97735.22
2022-08-24T00:56:56.579Z,97731.47
2022-08-24T00:59:34.237Z,97737.66
2022-08-24T01:02:15.553Z,97739.41
2022-08-24T01:04:58.707Z,97738.09
2022-08-24T01:07:28.484Z,97738.63
2022-08-24T01:09:58.400Z,97736.97
2022-08-24T01:12:26.841Z,97741.41
2022-08-24T01:14:55.879Z,97740.63
2022-08-24T01:17:41.025Z,97739.19
2022-08-24T01:20:09.475Z,97739.19
2022-08-24T01:22:47.735Z,97752.66
2022-08-24T01:25:14.975Z,97741.84
2022-08-24T01:27:42.208Z,97750.31
2022-08-24T01:30:13.698Z,97732.56
2022-08-24T01:32:42.202Z,97734.78
2022-08-24T01:35:08.987Z,97735.19
2022-08-24T01:37:35.706Z,97732.22
2022-08-24T01:40:07.257Z,97731.47
2022-08-24T01:42:34.976Z,97731.53
2022-08-24T01:45:01.676Z,97735.59
2022-08-24T01:47:28.855Z,97723.91
2022-08-24T01:49:55.327Z,97728.75
2022-08-24T01:52:25.562Z,97736.88
2022-08-24T01:54:53.511Z,97724.31
2022-08-24T01:57:20.462Z,97725.19
2022-08-24T01:59:49.637Z,97712.31
2022-08-24T02:02:22.239Z,97722.09
2022-08-24T02:04:48.793Z,97720.00
2022-08-24T02:07:15.325Z,97724.72
2022-08-24T02:09:42.167Z,97717.44
2022-08-24T02:12:09.255Z,97711.59
2022-08-24T02:14:36.866Z,97712.69
2022-08-24T02:17:06.325Z,97720.94
2022-08-24T02:19:33.434Z,97718.75
2022-08-24T02:22:00.530Z,97727.53
2022-08-24T02:24:30.486Z,97721.25
2022-08-24T02:26:57.574Z,97727.97
2022-08-24T02:29:24.450Z,97731.59
2022-08-24T02:31:51.569Z,97725.75
2022-08-24T02:34:18.415Z,97722.22
2022-08-24T02:36:47.678Z,97729.06
2022-08-24T02:39:14.251Z,97725.13
2022-08-24T02:41:41.003Z,97730.97
2022-08-24T02:44:07.599Z,97738.47
2022-08-24T02:46:34.233Z,97734.59
2022-08-24T02:49:10.048Z,97740.78
2022-08-24T02:51:44.638Z,97740.78
2022-08-24T02:54:12.931Z,97742.44
2022-08-24T02:56:39.762Z,97738.53
2022-08-24T02:59:06.480Z,97733.91
2022-08-24T03:01:33.042Z,97733.25
2022-08-24T03:03:59.630Z,97725.84
2022-08-24T03:06:26.207Z,97726.19
2022-08-24T03:08:56.356Z,97728.69
2022-08-24T03:11:27.404Z,97728.69
2022-08-24T03:13:55.433Z,97728.38
2022-08-24T03:16:21.986Z,97724.25
2022-08-24T03:18:48.452Z,97730.63
2022-08-24T03:21:15.318Z,97736.22
2022-08-24T03:23:41.883Z,97729.16
2022-08-24T03:26:08.475Z,97725.97
2022-08-24T03:28:35.449Z,97732.47
2022-08-24T03:31:02.069Z,97726.63
2022-08-24T03:33:28.711Z,97730.31
2022-08-24T03:35:55.366Z,97726.34
2022-08-24T03:38:22.322Z,97726.47
2022-08-24T03:40:49.036Z,97728.09
2022-08-24T03:43:34.695Z,97733.00
2022-08-24T03:46:03.120Z,97733.78
2022-08-24T03:48:30.651Z,97729.03
2022-08-24T03:51:00.851Z,97733.44
2022-08-24T03:53:27.326Z,97740.16
2022-08-24T03:55:53.817Z,97751.06
2022-08-24T03:58:20.354Z,97747.25
2022-08-24T04:00:47.007Z,97754.31
2022-08-24T04:03:14.121Z,97748.91
2022-08-24T04:05:42.312Z,97751.66
2022-08-24T04:08:09.531Z,97747.78
2022-08-24T04:10:36.244Z,97758.72
2022-08-24T04:13:02.971Z,97758.47
2022-08-24T04:15:32.195Z,97755.34
2022-08-24T04:17:58.930Z,97755.00
2022-08-24T04:20:25.882Z,97751.06
2022-08-24T04:22:53.587Z,97764.75
2022-08-24T04:25:24.710Z,97767.50
2022-08-24T04:27:51.979Z,97758.88
2022-08-24T04:30:18.704Z,97764.38
2022-08-24T04:32:45.412Z,97765.50
2022-08-24T04:35:12.004Z,97764.75
2022-08-24T04:37:38.675Z,97760.00
2022-08-24T04:40:08.187Z,97758.03
2022-08-24T04:42:35.577Z,97763.00
2022-08-24T04:45:03.994Z,97771.59
2022-08-24T04:47:30.545Z,97760.59
2022-08-24T04:49:57.002Z,97769.13
2022-08-24T04:52:24.242Z,97772.97
2022-08-24T04:54:50.769Z,97775.66
2022-08-24T04:57:18.407Z,97772.72
2022-08-24T04:59:45.557Z,97774.94
2022-08-24T05:02:12.302Z,97773.56
2022-08-24T05:04:38.838Z,97779.41
2022-08-24T05:07:06.374Z,97782.84
2022-08-24T05:09:32.861Z,97783.09
2022-08-24T05:11:59.339Z,97787.63
2022-08-24T05:14:29.020Z,97783.50
2022-08-24T05:16:55.884Z,97784.09
2022-08-24T05:19:23.462Z,97788.59
2022-08-24T05:21:50.590Z,97787.91
2022-08-24T05:24:17.547Z,97792.88
2022-08-24T05:26:44.028Z,97791.78
2022-08-24T05:29:10.844Z,97796.59
2022-08-24T05:31:37.429Z,97797.84
2022-08-24T05:34:04.756Z,97804.94
2022-08-24T05:36:38.329Z,97802.97
2022-08-24T05:39:11.165Z,97801.66
2022-08-24T05:41:44.010Z,97806.72
2022-08-24T05:44:12.786Z,97812.56
2022-08-24T05:46:40.058Z,97815.00
2022-08-24T05:49:08.250Z,97821.63
2022-08-24T05:51:35.759Z,97827.00
2022-08-24T05:54:04.924Z,97820.44
2022-08-24T05:56:32.184Z,97830.84
2022-08-24T05:58:59.312Z,97827.00
2022-08-24T06:01:27.208Z,97837.53
2022-08-24T06:03:55.453Z,97827.22
2022-08-24T06:06:23.521Z,97832.53
2022-08-24T06:08:55.145Z,97831.25
2022-08-24T06:11:29.904Z,97834.19
2022-08-24T06:14:01.478Z,97827.97
2022-08-24T06:16:29.104Z,97825.69
2022-08-24T06:18:56.247Z,97822.97
2022-08-24T06:21:28.428Z,97825.63
2022-08-24T06:23:56.063Z,97820.31
2022-08-24T06:26:41.300Z,97823.84
2022-08-24T06:29:08.395Z,97825.88
2022-08-24T06:31:40.078Z,97825.59
2022-08-24T06:34:09.814Z,97823.41
2022-08-24T06:36:36.677Z,97822.81
2022-08-24T06:39:04.027Z,97820.03
2022-08-24T06:41:32.531Z,97819.09
2022-08-24T06:43:59.249Z,97814.75
2022-08-24T06:46:28.381Z,97820.72
2022-08-24T06:48:58.746Z,97815.31
2022-08-24T06:51:25.427Z,97817.44
2022-08-24T06:53:54.564Z,97831.38
2022-08-24T06:56:21.042Z,97822.22
2022-08-24T06:58:48.079Z,97833.00
2022-08-24T07:01:20.690Z,97837.38
2022-08-24T07:03:47.479Z,97837.25
2022-08-24T07:06:14.827Z,97843.34
2022-08-24T07:08:42.820Z,97845.00
2022-08-24T07:11:11.143Z,97842.03
2022-08-24T07:13:37.755Z,97848.19
2022-08-24T07:16:04.928Z,97849.28
2022-08-24T07:18:31.784Z,97854.91
2022-08-24T07:21:02.335Z,97852.22
2022-08-24T07:23:41.290Z,97855.28
2022-08-24T07:26:21.655Z,97844.94
2022-08-24T07:28:54.732Z,97843.81
2022-08-24T07:31:21.472Z,97845.34
2022-08-24T07:33:48.065Z,97844.16
2022-08-24T07:36:17.011Z,97840.34
2022-08-24T07:38:52.179Z,97843.41
2022-08-24T07:41:40.541Z,97850.50
2022-08-24T07:44:06.246Z,97845.44
2022-08-24T07:46:32.834Z,97839.22
2022-08-24T07:49:11.681Z,97839.66
2022-08-24T07:51:46.934Z,97842.06
2022-08-24T07:54:14.715Z,97848.22
2022-08-24T07:56:44.095Z,97842.91
2022-08-24T07:59:13.273Z,97848.66
2022-08-24T08:01:41.472Z,97841.06
2022-08-24T08:04:08.915Z,97844.47
2022-08-24T08:06:35.456Z,97849.25
2022-08-24T08:09:02.985Z,97847.38
2022-08-24T08:11:29.464Z,97847.06
2022-08-24T08:13:55.919Z,97841.56
2022-08-24T08:16:22.644Z,97840.78
2022-08-24T08:18:56.466Z,97836.44
2022-08-24T08:21:50.693Z,97838.16
2022-08-24T08:24:20.591Z,97831.41
2022-08-24T08:26:52.688Z,97835.28
2022-08-24T08:29:20.025Z,97838.09
2022-08-24T08:31:47.391Z,97835.28
2022-08-24T08:34:13.950Z,97835.38
2022-08-24T08:36:41.572Z,97825.09
2022-08-24T08:39:10.481Z,97832.84
2022-08-24T08:41:42.796Z,97826.03
2022-08-24T08:44:22.147Z,97828.25
2022-08-24T08:47:16.745Z,97823.91
2022-08-24T08:50:05.319Z,97821.06
2022-08-24T08:52:50.642Z,97827.13
2022-08-24T08:55:24.125Z,97824.53
2022-08-24T08:57:56.984Z,97834.41
2022-08-24T09:00:35.990Z,97838.47
2022-08-24T09:03:08.005Z,97828.59
2022-08-24T09:06:02.507Z,97830.22
2022-08-24T09:08:57.523Z,97834.53
2022-08-24T09:11:33.581Z,97831.28
2022-08-24T09:14:27.539Z,97837.44
2022-08-24T09:17:12.962Z,97843.66
2022-08-24T09:20:02.437Z,97823.75
2022-08-24T09:22:28.986Z,97837.03
2022-08-24T09:24:55.390Z,97839.63
2022-08-24T09:27:42.234Z,97836.53
2022-08-24T09:30:15.170Z,97831.75
2022-08-24T09:32:50.572Z,97832.78
2022-08-24T09:35:32.443Z,97832.56
2022-08-24T09:38:06.802Z,97829.22
2022-08-24T09:40:52.119Z,97830.72
2022-08-24T09:43:40.374Z,97833.31
2022-08-24T09:46:27.267Z,97833.81
2022-08-24T09:49:02.563Z,97833.81
2022-08-24T09:51:47.056Z,97831.00
2022-08-24T09:54:28.760Z,97830.75
2022-08-24T09:57:12.110Z,97833.06
2022-08-24T10:00:23.440Z,97831.03
2022-08-24T10:03:14.441Z,97828.44
2022-08-24T10:06:14.101Z,97830.94
2022-08-24T10:09:24.131Z,97818.91
2022-08-24T10:12:04.228Z,97828.94
2022-08-24T10:14:45.866Z,97828.69
2022-08-24T10:17:36.974Z,97823.53
2022-08-24T10:20:25.167Z,97807.94
2022-08-24T10:22:57.341Z,97815.56
2022-08-24T10:25:39.126Z,97822.00
2022-08-24T10:28:41.782Z,97809.44
2022-08-24T10:31:37.006Z,97809.31
2022-08-24T10:34:27.884Z,97803.41
2022-08-24T10:37:28.407Z,97798.44
2022-08-24T10:40:31.637Z,97795.09
2022-08-24T10:43:19.654Z,97796.28
2022-08-24T10:46:20.193Z,97793.81
2022-08-24T10:49:19.911Z,97796.09
2022-08-24T10:52:18.736Z,97791.81
2022-08-24T10:54:45.826Z,97797.22
2022-08-24T10:57:41.467Z,97785.22
2022-08-24T11:00:23.087Z,97793.28
2022-08-24T11:03:04.856Z,97791.47
2022-08-24T11:05:43.914Z,97796.09
2022-08-24T11:08:18.279Z,97788.53
2022-08-24T11:10:44.744Z,97801.53
2022-08-24T11:13:27.320Z,97797.63
2022-08-24T11:15:57.940Z,97797.00
2022-08-24T11:18:25.182Z,97797.91
2022-08-24T11:20:55.054Z,97795.22
2022-08-24T11:23:31.671Z,97809.56
2022-08-24T11:26:19.351Z,97794.72
2022-08-24T11:28:57.548Z,97790.06
2022-08-24T11:31:35.989Z,97790.06
2022-08-24T11:34:17.500Z,97790.41
2022-08-24T11:36:44.218Z,97787.47
2022-08-24T11:39:31.447Z,97789.00
2022-08-24T11:42:05.594Z,97781.22
2022-08-24T11:44:39.660Z,97783.28
2022-08-24T11:47:25.754Z,97780.50
2022-08-24T11:50:06.767Z,97789.91
2022-08-24T11:53:03.103Z,97782.66
2022-08-24T11:55:57.102Z,97782.38
2022-08-24T11:58:44.334Z,97779.19
2022-08-24T12:01:19.434Z,97788.16
2022-08-24T12:04:06.265Z,97782.63
2022-08-24T12:06:44.901Z,97791.13
2022-08-24T12:09:29.706Z,97783.28
2022-08-24T12:12:15.017Z,97776.19
2022-08-24T12:14:55.138Z,97776.81
2022-08-24T12:17:35.494Z,97778.94
2022-08-24T12:20:13.707Z,97777.84
2022-08-24T12:22:42.519Z,97775.34
2022-08-24T12:25:30.494Z,97767.09
2022-08-24T12:27:58.119Z,97765.75
2022-08-24T12:30:26.457Z,97763.72
2022-08-24T12:33:03.000Z,97770.19
2022-08-24T12:35:36.899Z,97768.16
2022-08-24T12:38:14.371Z,97761.78
2022-08-24T12:40:59.751Z,97767.09
2022-08-24T12:43:38.855Z,97758.94
2022-08-24T12:46:06.872Z,97752.63
2022-08-24T12:48:42.722Z,97771.19
2022-08-24T12:51:40.935Z,97748.16
2022-08-24T12:54:35.579Z,97753.31
2022-08-24T12:57:07.976Z,97755.44
2022-08-24T12:59:48.385Z,97751.44
2022-08-24T13:02:15.108Z,97746.38
2022-08-24T13:04:58.089Z,97745.19
2022-08-24T13:07:24.613Z,97756.00
2022-08-24T13:09:56.830Z,97745.84
2022-08-24T13:12:41.374Z,97742.22
2022-08-24T13:15:37.639Z,97736.47
2022-08-24T13:18:11.123Z,97732.59
2022-08-24T13:20:44.359Z,97738.28
2022-08-24T13:23:11.047Z,97730.69
2022-08-24T13:25:59.288Z,97736.22
2022-08-24T13:28:25.676Z,97727.75
2022-08-24T13:31:13.012Z,97733.78
2022-08-24T13:33:58.530Z,97729.31
2022-08-24T13:36:31.098Z,97736.41
2022-08-24T13:39:17.750Z,97733.97
2022-08-24T13:42:00.644Z,97728.78
2022-08-24T13:45:15.863Z,97729.50
2022-08-24T13:47:52.494Z,97729.31
2022-08-24T13:50:31.117Z,97735.75
2022-08-24T13:53:36.229Z,97727.44
2022-08-24T13:56:22.394Z,97724.44
2022-08-24T13:59:16.513Z,97729.78
2022-08-24T14:01:47.525Z,97725.72
2022-08-24T14:04:26.052Z,97717.59
2022-08-24T14:07:00.383Z,97713.72
2022-08-24T14:09:39.250Z,97723.34
2022-08-24T14:12:24.155Z,97718.69
2022-08-24T14:15:08.776Z,97712.63
2022-08-24T14:17:53.872Z,97716.88
2022-08-24T14:20:22.323Z,97717.72
2022-08-24T14:22:51.889Z,97714.94
2022-08-24T14:25:23.496Z,97704.94
2022-08-24T14:27:49.976Z,97719.56
2022-08-24T14:30:19.168Z,97707.66
2022-08-24T14:32:58.338Z,97711.84
2022-08-24T14:35:34.803Z,97710.44
2022-08-24T14:38:16.292Z,97710.06
2022-08-24T14:41:03.382Z,97708.28
2022-08-24T14:43:35.881Z,97708.47
2022-08-24T14:46:50.488Z,97717.06
2022-08-24T14:49:54.557Z,97703.97
2022-08-24T14:52:30.178Z,97709.63
2022-08-24T14:55:14.533Z,97703.78
2022-08-24T14:57:53.470Z,97697.47
2022-08-24T15:00:52.715Z,97704.38
2022-08-24T15:03:26.126Z,97699.63
2022-08-24T15:06:33.913Z,97697.72
2022-08-24T15:09:22.975Z,97692.25
2022-08-24T15:12:01.232Z,97689.59
2022-08-24T15:14:47.527Z,97676.63
2022-08-24T15:17:21.350Z,97679.00
2022-08-24T15:19:47.727Z,97674.25
2022-08-24T15:22:26.991Z,97677.84
2022-08-24T15:25:07.470Z,97670.53
2022-08-24T15:27:43.456Z,97667.53
2022-08-24T15:33:20.984Z,97679.13
2022-08-24T15:35:50.514Z,97678.13
2022-08-24T15:38:32.330Z,97679.56
2022-08-24T15:41:22.861Z,97675.06
2022-08-24T15:43:55.495Z,97682.81
2022-08-24T15:46:41.426Z,97683.59
2022-08-24T15:49:17.177Z,97673.59
2022-08-24T15:51:43.726Z,97679.63
2022-08-24T15:54:31.458Z,97679.28
2022-08-24T15:57:11.318Z,97689.75
2022-08-24T15:59:40.600Z,97687.41
2022-08-24T16:02:30.439Z,97688.19
2022-08-24T16:05:01.882Z,97687.22
2022-08-24T16:08:04.287Z,97686.41
2022-08-24T16:10:41.868Z,97686.47
2022-08-24T16:13:17.504Z,97689.03
2022-08-24T16:16:02.734Z,97687.53
2022-08-24T16:18:41.872Z,97685.03
2022-08-24T16:21:35.356Z,97695.03
2022-08-24T16:24:04.050Z,97689.69
2022-08-24T16:26:37.607Z,97693.75
2022-08-24T16:29:05.205Z,97688.66
2022-08-24T16:31:44.559Z,97691.00
2022-08-24T16:34:28.611Z,97688.22
2022-08-24T16:36:56.183Z,97687.66
2022-08-24T16:39:22.966Z,97692.78
2022-08-24T16:41:52.130Z,97692.50
2022-08-24T16:44:18.645Z,97687.66
2022-08-24T16:46:48.180Z,97694.25
2022-08-24T16:49:14.827Z,97692.97
2022-08-24T16:51:45.242Z,97698.06
2022-08-24T16:54:12.240Z,97681.00
2022-08-24T16:56:38.914Z,97685.28
2022-08-24T16:59:06.972Z,97688.38
2022-08-24T17:01:33.589Z,97680.19
2022-08-24T17:04:00.152Z,97682.31
2022-08-24T17:06:26.918Z,97692.00
2022-08-24T17:08:53.647Z,97688.66
2022-08-24T17:11:20.299Z,97690.94
2022-08-24T17:13:50.201Z,97688.66
2022-08-24T17:16:19.117Z,97690.22
2022-08-24T17:18:45.774Z,97696.88
2022-08-24T17:21:12.764Z,97701.22
2022-08-24T17:23:41.382Z,97705.09
2022-08-24T17:26:21.503Z,97700.47
2022-08-24T17:28:51.663Z,97699.97
2022-08-24T17:31:18.384Z,97700.75
2022-08-24T17:33:44.981Z,97705.09
2022-08-24T17:36:15.321Z,97690.81
2022-08-24T17:38:52.984Z,97702.03
2022-08-24T17:41:23.024Z,97701.81
2022-08-24T17:43:49.540Z,97692.88
2022-08-24T17:46:18.242Z,97698.50
2022-08-24T17:48:46.557Z,97692.88
2022-08-24T17:51:13.602Z,97705.06
2022-08-24T17:53:40.500Z,97704.56
2022-08-24T17:56:08.351Z,97703.25
2022-08-24T17:58:57.887Z,97703.25
2022-08-24T18:01:24.936Z,97698.13
2022-08-24T18:03:51.614Z,97698.88
2022-08-24T18:06:20.431Z,97698.34
2022-08-24T18:08:48.361Z,97699.59
2022-08-24T18:11:14.992Z,97696.78
2022-08-24T18:13:42.675Z,97705.38
2022-08-24T18:16:16.250Z,97703.88
2022-08-24T18:18:43.038Z,97705.34
2022-08-24T18:21:09.489Z,97712.63
2022-08-24T18:23:37.248Z,97710.53
2022-08-24T18:26:11.380Z,97707.63
2022-08-24T18:28:46.011Z,97708.84
2022-08-24T18:31:14.980Z,97706.25
2022-08-24T18:33:47.424Z,97715.22
2022-08-24T18:36:13.876Z,97719.47
2022-08-24T18:38:40.505Z,97722.44
2022-08-24T18:41:07.051Z,97728.22
2022-08-24T18:43:33.488Z,97724.81
2022-08-24T18:46:00.130Z,97729.31
2022-08-24T18:48:26.734Z,97731.72
2022-08-24T18:50:53.259Z,97730.47
2022-08-24T18:53:20.258Z,97733.44
2022-08-24T18:55:48.025Z,97734.09
2022-08-24T18:58:14.582Z,97739.09
2022-08-24T19:00:41.636Z,97745.59
2022-08-24T19:03:11.174Z,97739.41
2022-08-24T19:05:39.388Z,97740.59
2022-08-24T19:08:06.585Z,97736.75
2022-08-24T19:10:36.363Z,97736.16
2022-08-24T19:13:09.639Z,97744.69
2022-08-24T19:15:39.788Z,97746.66
2022-08-24T19:18:13.565Z,97752.66
2022-08-24T19:20:45.957Z,97757.66
2022-08-24T19:23:28.384Z,97742.94
2022-08-24T19:25:55.803Z,97752.78
2022-08-24T19:28:24.608Z,97745.78
2022-08-24T19:30:55.736Z,97749.06
2022-08-24T19:33:34.862Z,97754.94
2022-08-24T19:36:01.723Z,97751.56
2022-08-24T19:38:28.153Z,97752.53
2022-08-24T19:40:57.391Z,97750.34
2022-08-24T19:43:27.236Z,97757.94
2022-08-24T19:46:10.255Z,97743.16
2022-08-24T19:48:39.754Z,97749.50
2022-08-24T19:51:10.693Z,97745.47
2022-08-24T19:53:37.699Z,97745.56
2022-08-24T19:56:05.483Z,97756.81
2022-08-24T19:58:46.466Z,97755.28
2022-08-24T20:01:23.146Z,97757.22
2022-08-24T20:03:50.513Z,97763.63
2022-08-24T20:06:19.015Z,97755.28
2022-08-24T20:08:48.400Z,97764.75
2022-08-24T20:11:15.998Z,97766.00
2022-08-24T20:13:43.279Z,97761.19
2022-08-24T20:16:14.327Z,97754.47
2022-08-24T20:18:41.162Z,97753.13
2022-08-24T20:21:08.188Z,97758.69
2022-08-24T20:23:34.847Z,97764.31
2022-08-24T20:26:03.253Z,97754.16
2022-08-24T20:28:46.897Z,97763.44
2022-08-24T20:31:14.866Z,97758.06
2022-08-24T20:33:41.798Z,97758.25
2022-08-24T20:36:20.532Z,97765.53
2022-08-24T20:38:47.086Z,97769.75
2022-08-24T20:41:15.626Z,97763.00
2022-08-24T20:43:42.115Z,97758.13
2022-08-24T20:46:09.736Z,97762.78
2022-08-24T20:48:40.249Z,97766.81
2022-08-24T20:51:09.509Z,97768.25
2022-08-24T20:53:36.012Z,97766.38
2022-08-24T20:56:07.486Z,97766.03
2022-08-24T20:58:34.159Z,97763.16
2022-08-24T21:01:00.932Z,97766.75
2022-08-24T21:03:27.509Z,97759.81
2022-08-24T21:05:54.005Z,97771.88
2022-08-24T21:08:20.513Z,97767.41
2022-08-24T21:10:47.099Z,97765.00
2022-08-24T21:13:13.599Z,97770.09
2022-08-24T21:15:41.567Z,97766.41
2022-08-24T21:18:09.476Z,97759.59
2022-08-24T21:20:36.197Z,97772.31
2022-08-24T21:23:03.713Z,97764.41
2022-08-24T21:25:31.217Z,97769.22
2022-08-24T21:28:00.756Z,97770.75
2022-08-24T21:30:27.699Z,97771.72
2022-08-24T21:33:12.934Z,97774.53
2022-08-24T21:35:41.333Z,97771.63
2022-08-24T21:38:08.763Z,97767.91
2022-08-24T21:40:36.644Z,97769.63
2022-08-24T21:43:03.742Z,97767.00
2022-08-24T21:45:42.568Z,97765.66
2022-08-24T21:48:11.278Z,97762.72
2022-08-24T21:50:37.782Z,97766.91
2022-08-24T21:53:04.441Z,97770.16
2022-08-24T21:55:31.254Z,97767.50
2022-08-24T21:57:57.669Z,97765.69
2022-08-24T22:00:24.245Z,97766.31
2022-08-24T22:02:50.822Z,97761.88
2022-08-24T22:05:17.915Z,97757.09
2022-08-24T22:07:45.132Z,97756.94
2022-08-24T22:10:12.298Z,97756.03
2022-08-24T22:12:43.386Z,97750.00
2022-08-24T22:15:12.856Z,97753.09
2022-08-24T22:17:39.559Z,97754.03
2022-08-24T22:20:07.808Z,97754.03
2022-08-24T22:22:35.442Z,97751.91
2022-08-24T22:25:01.998Z,97747.13
2022-08-24T22:27:28.563Z,97751.28
2022-08-24T22:29:56.194Z,97749.28
2022-08-24T22:32:22.686Z,97751.75
2022-08-24T22:34:49.141Z,97745.75
2022-08-24T22:37:15.767Z,97752.22
2022-08-24T22:39:42.323Z,97740.97
2022-08-24T22:42:09.383Z,97742.84
2022-08-24T22:44:36.099Z,97741.44
2022-08-24T22:47:10.868Z,97734.22
2022-08-24T22:49:43.616Z,97728.22
2022-08-24T22:52:13.242Z,97734.69
2022-08-24T22:54:40.967Z,97732.41
2022-08-24T22:57:07.963Z,97723.59
2022-08-24T22:59:37.438Z,97724.53
2022-08-24T23:02:07.186Z,97729.16
2022-08-24T23:04:37.543Z,97728.81
2022-08-24T23:07:05.191Z,97727.44
2022-08-24T23:09:44.131Z,97722.97
2022-08-24T23:12:13.304Z,97723.28
2022-08-24T23:14:40.392Z,97720.22
2022-08-24T23:17:06.962Z,97720.50
2022-08-24T23:19:51.874Z,97716.53
2022-08-24T23:22:20.287Z,97723.16
2022-08-24T23:24:48.009Z,97720.06
2022-08-24T23:27:16.783Z,97721.75
2022-08-24T23:29:44.620Z,97726.38
2022-08-24T23:32:11.360Z,97726.69
2022-08-24T23:34:38.035Z,97721.75
2022-08-24T23:37:05.121Z,97724.84
2022-08-24T23:39:32.266Z,97731.94
2022-08-24T23:41:59.018Z,97734.72
2022-08-24T23:44:28.501Z,97719.00
2022-08-24T23:46:57.067Z,97717.31
2022-08-24T23:49:24.350Z,97714.53
2022-08-24T23:51:52.570Z,97714.84
2022-08-24T23:54:20.237Z,97717.47
2022-08-24T23:56:48.264Z,97713.16
2022-08-24T23:59:19.416Z,97715.47
